createdAt,value
2022-08-04T00:00:15.810Z,93.90
2022-08-04T00:02:35.729Z,94.20
2022-08-04T00:04:37.408Z,94.40
2022-08-04T00:06:48.758Z,94.50
2022-08-04T00:08:55.832Z,94.70
2022-08-04T00:10:59.491Z,94.90
2022-08-04T00:13:02.734Z,95.30
2022-08-04T00:15:05.814Z,95.40
2022-08-04T00:17:08.267Z,95.60
2022-08-04T00:19:16.635Z,95.70
2022-08-04T00:21:19.333Z,95.60
2022-08-04T00:23:22.403Z,95.70
2022-08-04T00:25:24.981Z,96.40
2022-08-04T00:27:28.542Z,96.20
2022-08-04T00:29:30.937Z,96.60
2022-08-04T00:31:53.630Z,96.50
2022-08-04T00:33:54.557Z,96.70
2022-08-04T00:35:56.844Z,96.60
2022-08-04T00:37:59.217Z,96.90
2022-08-04T00:40:01.402Z,96.80
2022-08-04T00:42:26.577Z,96.50
2022-08-04T00:44:45.588Z,97.00
2022-08-04T00:47:05.815Z,97.20
2022-08-04T00:49:13.108Z,97.20
2022-08-04T00:51:17.779Z,97.60
2022-08-04T00:53:27.284Z,97.40
2022-08-04T00:55:35.845Z,97.30
2022-08-04T00:57:56.839Z,97.60
2022-08-04T01:00:01.286Z,97.60
2022-08-04T01:02:35.561Z,98.00
2022-08-04T01:04:45.108Z,98.20
2022-08-04T01:07:05.760Z,98.30
2022-08-04T01:09:21.676Z,98.40
2022-08-04T01:11:26.902Z,98.80
2022-08-04T01:13:46.923Z,98.70
2022-08-04T01:16:00.319Z,98.80
2022-08-04T01:18:02.384Z,99.30
2022-08-04T01:20:08.753Z,99.30
2022-08-04T01:22:29.384Z,99.40
2022-08-04T01:24:37.131Z,99.80
2022-08-04T01:26:58.221Z,99.90
2022-08-04T01:29:08.559Z,99.90
2022-08-04T01:31:20.704Z,99.90
2022-08-04T01:33:22.844Z,99.90
2022-08-04T01:35:47.407Z,99.90
2022-08-04T01:37:49.690Z,99.90
2022-08-04T01:39:58.069Z,99.90
2022-08-04T01:42:00.354Z,99.90
2022-08-04T01:44:04.423Z,99.90
2022-08-04T01:46:06.158Z,99.90
2022-08-04T01:48:10.062Z,99.90
2022-08-04T01:50:12.907Z,99.90
2022-08-04T01:52:16.298Z,99.90
2022-08-04T01:54:18.441Z,99.90
2022-08-04T01:56:21.176Z,99.90
2022-08-04T01:58:24.238Z,99.90
2022-08-04T02:00:29.174Z,99.90
2022-08-04T02:02:31.178Z,99.90
2022-08-04T02:04:33.047Z,99.90
2022-08-04T02:06:35.788Z,99.90
2022-08-04T02:08:46.246Z,99.90
2022-08-04T02:11:05.008Z,99.90
2022-08-04T02:13:25.593Z,99.90
2022-08-04T02:15:33.580Z,99.90
2022-08-04T02:17:51.669Z,99.90
2022-08-04T02:20:07.440Z,99.90
2022-08-04T02:22:15.965Z,99.90
2022-08-04T02:24:21.864Z,99.90
2022-08-04T02:26:26.036Z,99.90
2022-08-04T02:28:27.716Z,99.90
2022-08-04T02:30:40.448Z,99.90
2022-08-04T02:32:43.888Z,99.90
2022-08-04T02:35:14.848Z,99.90
2022-08-04T02:37:17.264Z,99.90
2022-08-04T02:39:20.287Z,99.90
2022-08-04T02:41:22.833Z,99.90
2022-08-04T02:43:51.981Z,99.90
2022-08-04T02:45:49.027Z,99.90
2022-08-04T02:48:20.271Z,99.90
2022-08-04T02:50:14.376Z,99.90
2022-08-04T02:52:30.689Z,99.90
2022-08-04T02:54:33.970Z,99.90
2022-08-04T02:56:37.487Z,99.90
2022-08-04T02:58:42.585Z,99.90
2022-08-04T03:00:45.091Z,99.90
2022-08-04T03:02:52.860Z,99.90
2022-08-04T03:05:00.685Z,99.90
2022-08-04T03:07:05.071Z,99.90
2022-08-04T03:09:09.815Z,99.90
2022-08-04T03:11:29.906Z,99.90
2022-08-04T03:13:58.020Z,99.90
2022-08-04T03:16:10.123Z,99.90
2022-08-04T03:18:14.202Z,99.90
2022-08-04T03:20:22.053Z,99.90
2022-08-04T03:22:29.135Z,99.90
2022-08-04T03:24:54.108Z,99.90
2022-08-04T03:27:07.993Z,99.90
2022-08-04T03:29:36.365Z,99.90
2022-08-04T03:31:44.971Z,99.90
2022-08-04T03:33:57.255Z,99.90
2022-08-04T03:36:05.100Z,99.90
2022-08-04T03:38:25.675Z,99.90
2022-08-04T03:40:30.470Z,99.90
2022-08-04T03:42:38.145Z,99.90
2022-08-04T03:44:58.645Z,99.90
2022-08-04T03:47:00.314Z,99.90
2022-08-04T03:49:13.918Z,99.90
2022-08-04T03:51:36.241Z,99.90
2022-08-04T03:53:41.321Z,99.90
2022-08-04T03:55:42.985Z,99.90
2022-08-04T03:57:44.700Z,99.90
2022-08-04T04:00:06.421Z,99.90
2022-08-04T04:02:26.933Z,99.90
2022-08-04T04:04:31.643Z,99.90
2022-08-04T04:06:40.258Z,99.90
2022-08-04T04:08:49.807Z,99.90
2022-08-04T04:11:06.883Z,99.90
2022-08-04T04:13:14.909Z,99.90
2022-08-04T04:15:28.819Z,99.90
2022-08-04T04:17:48.736Z,99.90
2022-08-04T04:19:58.555Z,99.90
2022-08-04T04:22:00.514Z,99.90
2022-08-04T04:24:20.751Z,99.90
2022-08-04T04:26:34.351Z,99.90
2022-08-04T04:28:44.952Z,99.90
2022-08-04T04:30:55.773Z,99.90
2022-08-04T04:33:12.978Z,99.90
2022-08-04T04:35:20.904Z,99.90
2022-08-04T04:37:48.699Z,99.90
2022-08-04T04:40:00.000Z,99.90
2022-08-04T04:42:40.613Z,99.90
2022-08-04T04:44:50.625Z,99.90
2022-08-04T04:46:55.295Z,99.90
2022-08-04T04:49:01.450Z,99.90
2022-08-04T04:51:11.110Z,99.90
2022-08-04T04:53:19.170Z,99.90
2022-08-04T04:55:20.913Z,99.90
2022-08-04T04:57:53.508Z,99.90
2022-08-04T04:59:56.478Z,99.90
2022-08-04T05:02:18.286Z,99.90
2022-08-04T05:04:37.187Z,99.90
2022-08-04T05:07:01.953Z,99.90
2022-08-04T05:09:13.356Z,99.90
2022-08-04T05:11:18.110Z,99.90
2022-08-04T05:14:38.595Z,99.90
2022-08-04T05:15:44.000Z,99.90
2022-08-04T05:17:53.994Z,99.90
2022-08-04T05:19:55.697Z,99.90
2022-08-04T05:22:02.252Z,99.90
2022-08-04T05:24:06.593Z,99.90
2022-08-04T05:26:11.672Z,99.90
2022-08-04T05:28:16.771Z,99.90
2022-08-04T05:30:18.884Z,99.90
2022-08-04T05:32:24.544Z,99.90
2022-08-04T05:34:30.756Z,99.90
2022-08-04T05:36:47.906Z,99.90
2022-08-04T05:38:51.130Z,99.90
2022-08-04T05:40:54.874Z,99.90
2022-08-04T05:42:57.179Z,99.90
2022-08-04T05:44:59.640Z,99.90
2022-08-04T05:47:02.765Z,99.90
2022-08-04T05:49:04.812Z,99.90
2022-08-04T05:51:07.101Z,99.90
2022-08-04T05:53:10.008Z,99.90
2022-08-04T05:55:17.004Z,99.90
2022-08-04T05:57:36.519Z,99.90
2022-08-04T05:59:39.385Z,99.90
2022-08-04T06:01:56.554Z,99.90
2022-08-04T06:03:59.985Z,99.90
2022-08-04T06:06:02.345Z,99.90
2022-08-04T06:08:11.796Z,99.90
2022-08-04T06:10:16.901Z,99.90
2022-08-04T06:12:21.773Z,99.90
2022-08-04T06:14:24.097Z,99.90
2022-08-04T06:16:30.821Z,99.90
2022-08-04T06:19:58.856Z,99.90
2022-08-04T06:20:56.861Z,99.90
2022-08-04T06:23:02.904Z,99.90
2022-08-04T06:25:05.286Z,99.90
2022-08-04T06:27:09.864Z,99.90
2022-08-04T06:29:20.336Z,99.90
2022-08-04T06:32:28.385Z,99.90
2022-08-04T06:34:03.408Z,99.90
2022-08-04T06:36:06.109Z,99.90
2022-08-04T06:38:08.649Z,99.90
2022-08-04T06:40:29.919Z,99.90
2022-08-04T06:42:33.239Z,99.90
2022-08-04T06:44:36.069Z,99.90
2022-08-04T06:46:39.871Z,99.90
2022-08-04T06:48:43.124Z,99.90
2022-08-04T06:51:31.339Z,99.90
2022-08-04T06:53:09.132Z,99.90
2022-08-04T06:55:11.296Z,99.90
2022-08-04T06:57:18.206Z,99.90
2022-08-04T06:59:20.424Z,99.90
2022-08-04T07:01:23.078Z,99.90
2022-08-04T07:03:24.843Z,99.90
2022-08-04T07:05:26.726Z,99.60
2022-08-04T07:07:33.835Z,98.90
2022-08-04T07:09:39.337Z,98.50
2022-08-04T07:11:44.612Z,98.40
2022-08-04T07:13:46.777Z,98.40
2022-08-04T07:15:48.771Z,97.90
2022-08-04T07:17:52.243Z,97.20
2022-08-04T07:19:54.318Z,96.90
2022-08-04T07:22:16.007Z,97.10
2022-08-04T07:24:18.050Z,96.70
2022-08-04T07:26:19.926Z,95.90
2022-08-04T07:28:22.534Z,96.00
2022-08-04T07:30:25.815Z,95.70
2022-08-04T07:32:27.808Z,95.30
2022-08-04T07:34:31.700Z,94.90
2022-08-04T07:36:40.699Z,94.00
2022-08-04T07:38:52.440Z,93.40
2022-08-04T07:40:55.211Z,93.30
2022-08-04T07:42:57.748Z,93.30
2022-08-04T07:44:59.600Z,93.00
2022-08-04T07:47:02.554Z,92.80
2022-08-04T07:49:04.872Z,91.80
2022-08-04T07:51:06.885Z,91.50
2022-08-04T07:53:55.372Z,91.50
2022-08-04T07:55:31.590Z,91.10
2022-08-04T07:57:41.737Z,90.70
2022-08-04T07:59:48.335Z,90.60
2022-08-04T08:01:51.889Z,90.00
2022-08-04T08:03:56.045Z,89.90
2022-08-04T08:06:22.537Z,87.60
2022-08-04T08:08:21.556Z,87.70
2022-08-04T08:10:24.037Z,87.00
2022-08-04T08:12:38.606Z,86.50
2022-08-04T08:14:47.955Z,86.00
2022-08-04T08:16:49.657Z,85.40
2022-08-04T08:18:51.395Z,84.30
2022-08-04T08:20:53.279Z,83.20
2022-08-04T08:22:55.982Z,82.60
2022-08-04T08:24:57.925Z,84.00
2022-08-04T08:27:00.548Z,82.70
2022-08-04T08:29:02.904Z,81.50
2022-08-04T08:31:07.230Z,80.80
2022-08-04T08:33:15.199Z,80.50
2022-08-04T08:35:16.981Z,81.70
2022-08-04T08:37:21.694Z,79.90
2022-08-04T08:39:35.689Z,80.30
2022-08-04T08:41:56.101Z,79.70
2022-08-04T08:44:19.165Z,79.00
2022-08-04T08:46:52.023Z,78.50
2022-08-04T08:48:59.708Z,79.10
2022-08-04T08:51:07.233Z,77.10
2022-08-04T08:53:27.703Z,75.90
2022-08-04T08:55:31.235Z,75.30
2022-08-04T08:57:59.742Z,75.30
2022-08-04T09:00:23.630Z,75.90
2022-08-04T09:03:04.798Z,74.80
2022-08-04T09:05:07.022Z,73.60
2022-08-04T09:07:47.411Z,72.30
2022-08-04T09:10:01.109Z,71.10
2022-08-04T09:12:25.511Z,71.20
2022-08-04T09:14:47.903Z,71.50
2022-08-04T09:16:56.613Z,70.10
2022-08-04T09:19:22.946Z,71.60
2022-08-04T09:21:41.826Z,70.90
2022-08-04T09:23:46.323Z,69.10
2022-08-04T09:25:47.942Z,69.30
2022-08-04T09:27:59.859Z,67.80
2022-08-04T09:30:11.735Z,67.10
2022-08-04T09:32:31.967Z,66.00
2022-08-04T09:34:42.769Z,65.50
2022-08-04T09:36:51.618Z,64.40
2022-08-04T09:39:03.845Z,64.60
2022-08-04T09:41:48.788Z,64.70
2022-08-04T09:43:59.380Z,66.00
2022-08-04T09:46:39.506Z,62.10
2022-08-04T09:48:44.246Z,63.30
2022-08-04T09:50:51.725Z,64.30
2022-08-04T09:53:13.618Z,63.50
2022-08-04T09:55:54.574Z,63.00
2022-08-04T09:58:15.062Z,62.80
2022-08-04T10:00:17.829Z,63.10
2022-08-04T10:02:21.931Z,62.10
2022-08-04T10:04:25.915Z,61.70
2022-08-04T10:06:27.546Z,60.30
2022-08-04T10:08:32.291Z,60.90
2022-08-04T10:10:37.162Z,57.30
2022-08-04T10:12:42.089Z,57.60
2022-08-04T10:14:46.750Z,58.00
2022-08-04T10:16:51.532Z,57.90
2022-08-04T10:18:56.022Z,58.40
2022-08-04T10:21:02.848Z,58.00
2022-08-04T10:23:13.157Z,58.80
2022-08-04T10:25:37.710Z,57.40
2022-08-04T10:27:58.825Z,57.40
2022-08-04T10:30:11.810Z,58.30
2022-08-04T10:32:16.537Z,57.30
2022-08-04T10:34:22.646Z,57.20
2022-08-04T10:36:27.812Z,57.60
2022-08-04T10:38:37.587Z,57.70
2022-08-04T10:40:45.486Z,57.00
2022-08-04T10:42:53.872Z,58.60
2022-08-04T10:45:14.976Z,57.80
2022-08-04T10:47:18.772Z,58.60
2022-08-04T10:49:21.579Z,57.80
2022-08-04T10:51:58.763Z,56.70
2022-08-04T10:54:03.116Z,57.30
2022-08-04T10:56:09.790Z,57.50
2022-08-04T10:58:16.275Z,56.90
2022-08-04T11:00:28.033Z,55.90
2022-08-04T11:02:29.969Z,55.30
2022-08-04T11:04:37.462Z,57.00
2022-08-04T11:06:39.898Z,56.60
2022-08-04T11:08:46.437Z,56.80
2022-08-04T11:11:09.556Z,55.90
2022-08-04T11:13:22.938Z,55.20
2022-08-04T11:15:39.527Z,55.20
2022-08-04T11:17:44.026Z,55.10
2022-08-04T11:19:55.717Z,55.50
2022-08-04T11:22:14.372Z,54.50
2022-08-04T11:24:15.996Z,54.70
2022-08-04T11:26:24.301Z,54.40
2022-08-04T11:28:26.617Z,53.50
2022-08-04T11:30:35.830Z,54.40
2022-08-04T11:32:40.218Z,52.80
2022-08-04T11:34:52.968Z,53.70
2022-08-04T11:37:01.077Z,53.80
2022-08-04T11:39:02.752Z,54.10
2022-08-04T11:41:07.984Z,52.70
2022-08-04T11:43:16.370Z,53.70
2022-08-04T11:45:40.933Z,54.00
2022-08-04T11:47:48.745Z,53.00
2022-08-04T11:49:56.585Z,52.70
2022-08-04T11:52:00.627Z,53.20
2022-08-04T11:54:02.632Z,53.30
2022-08-04T11:56:09.313Z,51.00
2022-08-04T11:58:11.894Z,52.30
2022-08-04T12:00:14.562Z,51.20
2022-08-04T12:02:27.124Z,50.00
2022-08-04T12:04:37.855Z,51.10
2022-08-04T12:06:39.699Z,49.10
2022-08-04T12:08:47.894Z,50.00
2022-08-04T12:11:07.944Z,49.10
2022-08-04T12:13:16.298Z,50.80
2022-08-04T12:15:17.944Z,50.50
2022-08-04T12:17:25.442Z,49.50
2022-08-04T12:19:52.174Z,49.50
2022-08-04T12:22:01.503Z,49.70
2022-08-04T12:24:14.051Z,52.00
2022-08-04T12:26:23.265Z,52.10
2022-08-04T12:28:41.330Z,49.20
2022-08-04T12:30:58.254Z,50.20
2022-08-04T12:33:04.016Z,49.40
2022-08-04T12:35:14.468Z,49.10
2022-08-04T12:37:22.680Z,48.50
2022-08-04T12:39:25.718Z,48.70
2022-08-04T12:41:32.717Z,49.20
2022-08-04T12:43:38.889Z,48.50
2022-08-04T12:45:50.683Z,48.40
2022-08-04T12:47:54.045Z,50.50
2022-08-04T12:50:03.868Z,48.40
2022-08-04T12:52:09.461Z,49.40
2022-08-04T12:54:12.212Z,47.50
2022-08-04T12:56:14.655Z,47.30
2022-08-04T12:58:18.957Z,48.40
2022-08-04T13:00:42.098Z,46.90
2022-08-04T13:02:46.434Z,47.70
2022-08-04T13:04:51.267Z,47.50
2022-08-04T13:07:04.970Z,47.30
2022-08-04T13:09:17.479Z,45.90
2022-08-04T13:11:21.391Z,45.00
2022-08-04T13:13:25.507Z,45.40
2022-08-04T13:15:28.214Z,45.50
2022-08-04T13:17:42.637Z,45.60
2022-08-04T13:19:47.901Z,45.20
2022-08-04T13:22:03.260Z,46.10
2022-08-04T13:24:20.985Z,46.40
2022-08-04T13:26:44.385Z,46.80
2022-08-04T13:28:49.106Z,45.20
2022-08-04T13:30:57.376Z,45.80
2022-08-04T13:33:00.836Z,45.70
2022-08-04T13:35:04.620Z,45.90
2022-08-04T13:37:06.795Z,44.30
2022-08-04T13:39:15.451Z,44.50
2022-08-04T13:41:19.163Z,44.10
2022-08-04T13:44:16.430Z,45.10
2022-08-04T13:45:48.581Z,45.90
2022-08-04T13:47:51.687Z,43.80
2022-08-04T13:50:11.800Z,45.80
2022-08-04T13:52:13.976Z,44.40
2022-08-04T13:54:15.889Z,44.10
2022-08-04T13:56:17.629Z,43.80
2022-08-04T13:58:21.644Z,45.10
2022-08-04T14:00:29.865Z,42.90
2022-08-04T14:02:37.682Z,42.60
2022-08-04T14:04:41.009Z,45.40
2022-08-04T14:07:01.109Z,42.50
2022-08-04T14:09:02.738Z,43.90
2022-08-04T14:11:05.514Z,42.60
2022-08-04T14:13:07.595Z,43.70
2022-08-04T14:15:29.084Z,44.10
2022-08-04T14:17:50.833Z,41.50
2022-08-04T14:19:54.450Z,41.90
2022-08-04T14:21:56.209Z,42.40
2022-08-04T14:23:57.949Z,42.40
2022-08-04T14:25:59.663Z,41.70
2022-08-04T14:28:01.760Z,41.90
2022-08-04T14:30:03.599Z,42.60
2022-08-04T14:32:13.017Z,43.10
2022-08-04T14:34:30.103Z,41.80
2022-08-04T14:36:56.034Z,41.40
2022-08-04T14:39:07.221Z,41.50
2022-08-04T14:41:09.038Z,41.50
2022-08-04T14:43:10.760Z,42.00
2022-08-04T14:45:12.500Z,41.70
2022-08-04T14:47:14.202Z,40.90
2022-08-04T14:49:15.933Z,40.60
2022-08-04T14:51:17.618Z,40.40
2022-08-04T14:53:31.009Z,40.80
2022-08-04T14:55:32.708Z,40.10
2022-08-04T14:58:36.639Z,38.80
2022-08-04T15:00:00.870Z,40.60
2022-08-04T15:02:04.211Z,39.70
2022-08-04T15:04:06.581Z,41.00
2022-08-04T15:06:13.678Z,41.50
2022-08-04T15:08:17.957Z,39.60
2022-08-04T15:10:20.629Z,38.70
2022-08-04T15:12:22.630Z,39.50
2022-08-04T15:14:37.048Z,39.20
2022-08-04T15:16:39.799Z,40.40
2022-08-04T15:18:57.505Z,37.80
2022-08-04T15:20:59.713Z,38.10
2022-08-04T15:23:02.846Z,38.30
2022-08-04T15:25:06.936Z,37.80
2022-08-04T15:27:13.891Z,39.50
2022-08-04T15:29:18.945Z,39.40
2022-08-04T15:32:05.474Z,39.40
2022-08-04T15:33:43.628Z,38.10
2022-08-04T15:35:46.096Z,38.60
2022-08-04T15:38:08.097Z,36.90
2022-08-04T15:40:13.928Z,37.30
2022-08-04T15:42:23.857Z,37.50
2022-08-04T15:44:44.362Z,36.70
2022-08-04T15:47:06.242Z,38.10
2022-08-04T15:49:21.066Z,37.50
2022-08-04T15:51:31.762Z,38.20
2022-08-04T15:54:02.943Z,37.70
2022-08-04T15:56:02.163Z,37.00
2022-08-04T15:58:06.256Z,36.90
2022-08-04T16:00:12.815Z,35.60
2022-08-04T16:02:43.771Z,36.70
2022-08-04T16:04:45.696Z,35.60
2022-08-04T16:06:47.539Z,35.20
2022-08-04T16:08:57.475Z,35.70
2022-08-04T16:11:00.055Z,34.70
2022-08-04T16:13:09.034Z,36.10
2022-08-04T16:15:46.959Z,35.50
2022-08-04T16:17:49.286Z,34.70
2022-08-04T16:19:55.122Z,33.70
2022-08-04T16:21:58.112Z,34.90
2022-08-04T16:24:08.558Z,35.60
2022-08-04T16:26:10.198Z,33.70
2022-08-04T16:28:37.761Z,34.30
2022-08-04T16:30:43.061Z,33.30
2022-08-04T16:32:48.832Z,35.50
2022-08-04T16:34:56.878Z,35.00
2022-08-04T16:36:59.861Z,34.00
2022-08-04T16:39:03.721Z,34.10
2022-08-04T16:41:05.462Z,33.20
2022-08-04T16:43:17.594Z,32.90
2022-08-04T16:45:19.403Z,33.50
2022-08-04T16:47:41.113Z,33.70
2022-08-04T16:49:49.536Z,34.60
2022-08-04T16:51:54.208Z,33.30
2022-08-04T16:54:04.657Z,33.80
2022-08-04T16:56:08.939Z,33.40
2022-08-04T16:58:10.812Z,34.50
2022-08-04T17:00:12.561Z,32.60
2022-08-04T17:02:14.367Z,34.10
2022-08-04T17:04:16.549Z,34.50
2022-08-04T17:06:18.502Z,34.50
2022-08-04T17:08:29.750Z,35.20
2022-08-04T17:10:39.673Z,35.10
2022-08-04T17:12:41.622Z,35.60
2022-08-04T17:14:45.050Z,36.50
2022-08-04T17:16:46.882Z,37.10
2022-08-04T17:18:50.044Z,36.00
2022-08-04T17:21:00.823Z,35.80
2022-08-04T17:24:14.216Z,36.50
2022-08-04T17:25:54.345Z,35.80
2022-08-04T17:30:27.231Z,37.90
2022-08-04T17:32:28.876Z,36.90
2022-08-04T17:34:30.577Z,38.60
2022-08-04T17:36:34.280Z,38.60
2022-08-04T17:38:56.251Z,39.20
2022-08-04T17:41:19.153Z,39.00
2022-08-04T17:44:01.390Z,41.20
2022-08-04T17:46:28.110Z,42.60
2022-08-04T17:48:31.073Z,40.80
2022-08-04T17:50:36.351Z,42.40
2022-08-04T17:52:44.635Z,43.80
2022-08-04T17:54:47.266Z,44.40
2022-08-04T17:56:52.096Z,46.10
2022-08-04T17:59:16.453Z,46.30
2022-08-04T18:01:52.304Z,44.70
2022-08-04T18:03:57.995Z,45.70
2022-08-04T18:06:11.159Z,46.10
2022-08-04T18:08:45.868Z,46.50
2022-08-04T18:10:52.509Z,46.30
2022-08-04T18:13:06.095Z,46.40
2022-08-04T18:15:22.821Z,47.30
2022-08-04T18:18:20.002Z,48.20
2022-08-04T18:19:59.232Z,49.00
2022-08-04T18:22:01.241Z,49.20
2022-08-04T18:24:03.093Z,49.70
2022-08-04T18:26:04.811Z,50.50
2022-08-04T18:28:16.363Z,50.20
2022-08-04T18:30:34.444Z,49.70
2022-08-04T18:33:24.770Z,50.40
2022-08-04T18:35:07.243Z,50.80
2022-08-04T18:38:02.859Z,51.00
2022-08-04T18:40:26.145Z,51.80
2022-08-04T18:42:03.611Z,52.80
2022-08-04T18:44:06.245Z,52.70
2022-08-04T18:46:14.853Z,53.10
2022-08-04T18:48:17.074Z,53.70
2022-08-04T18:50:59.325Z,53.90
2022-08-04T18:52:42.135Z,53.90
2022-08-04T18:54:47.183Z,54.20
2022-08-04T18:57:24.864Z,54.30
2022-08-04T18:59:14.158Z,54.20
2022-08-04T19:01:21.091Z,55.20
2022-08-04T19:03:33.128Z,55.70
2022-08-04T19:05:38.010Z,55.60
2022-08-04T19:08:02.613Z,56.10
2022-08-04T19:10:05.454Z,56.10
2022-08-04T19:12:07.549Z,56.30
2022-08-04T19:14:13.291Z,56.70
2022-08-04T19:16:16.767Z,57.30
2022-08-04T19:18:22.726Z,57.60
2022-08-04T19:20:26.559Z,57.90
2022-08-04T19:22:35.933Z,58.20
2022-08-04T19:24:50.315Z,58.60
2022-08-04T19:26:52.475Z,58.90
2022-08-04T19:28:54.327Z,60.00
2022-08-04T19:30:57.537Z,59.40
2022-08-04T19:32:59.224Z,59.30
2022-08-04T19:35:00.924Z,59.70
2022-08-04T19:37:02.710Z,60.50
2022-08-04T19:39:09.300Z,61.30
2022-08-04T19:41:14.791Z,61.50
2022-08-04T19:43:16.690Z,61.80
2022-08-04T19:45:18.471Z,61.60
2022-08-04T19:48:17.555Z,61.40
2022-08-04T19:50:05.314Z,62.00
2022-08-04T19:52:03.821Z,62.60
2022-08-04T19:54:16.741Z,62.80
2022-08-04T19:56:25.631Z,63.20
2022-08-04T19:58:27.731Z,63.00
2022-08-04T20:02:52.266Z,63.70
2022-08-04T20:04:53.973Z,63.30
2022-08-04T20:06:56.312Z,63.80
2022-08-04T20:08:59.325Z,64.00
2022-08-04T20:11:01.076Z,64.80
2022-08-04T20:13:02.796Z,64.80
2022-08-04T20:15:15.065Z,65.80
2022-08-04T20:17:17.838Z,66.20
2022-08-04T20:19:19.663Z,66.50
2022-08-04T20:21:24.221Z,66.50
2022-08-04T20:23:48.618Z,66.50
2022-08-04T20:25:52.205Z,66.80
2022-08-04T20:27:59.913Z,67.10
2022-08-04T20:30:13.909Z,67.40
2022-08-04T20:32:19.812Z,68.50
2022-08-04T20:34:21.842Z,67.80
2022-08-04T20:36:25.537Z,68.30
2022-08-04T20:38:32.652Z,68.60
2022-08-04T20:40:36.627Z,68.40
2022-08-04T20:42:39.038Z,68.90
2022-08-04T20:44:42.321Z,68.50
2022-08-04T20:46:48.547Z,69.50
2022-08-04T20:48:50.459Z,69.90
2022-08-04T20:50:52.167Z,69.40
2022-08-04T20:52:53.950Z,69.80
2022-08-04T20:54:56.132Z,70.70
2022-08-04T20:56:59.663Z,70.60
2022-08-04T20:59:01.693Z,70.80
2022-08-04T21:01:09.842Z,70.60
2022-08-04T21:03:12.765Z,71.40
2022-08-04T21:05:14.539Z,71.70
2022-08-04T21:07:16.765Z,71.80
2022-08-04T21:09:37.149Z,71.90
2022-08-04T21:11:40.589Z,72.20
2022-08-04T21:13:52.121Z,72.80
2022-08-04T21:15:59.108Z,73.30
2022-08-04T21:18:04.416Z,73.00
2022-08-04T21:20:07.308Z,74.50
2022-08-04T21:22:16.653Z,74.10
2022-08-04T21:24:35.539Z,74.40
2022-08-04T21:26:37.725Z,74.40
2022-08-04T21:28:44.471Z,74.50
2022-08-04T21:30:54.501Z,75.10
2022-08-04T21:32:57.372Z,75.10
2022-08-04T21:35:00.473Z,75.30
2022-08-04T21:37:09.056Z,75.20
2022-08-04T21:39:11.959Z,75.60
2022-08-04T21:41:13.747Z,75.80
2022-08-04T21:43:27.429Z,76.30
2022-08-04T21:45:35.968Z,77.10
2022-08-04T21:47:49.109Z,77.00
2022-08-04T21:49:56.668Z,76.70
2022-08-04T21:52:01.668Z,76.70
2022-08-04T21:54:11.567Z,76.60
2022-08-04T21:56:16.608Z,76.50
2022-08-04T21:58:29.180Z,77.10
2022-08-04T22:00:34.729Z,77.30
2022-08-04T22:02:36.399Z,77.50
2022-08-04T22:04:38.222Z,78.20
2022-08-04T22:06:40.101Z,78.70
2022-08-04T22:08:43.195Z,78.80
2022-08-04T22:10:51.102Z,79.10
2022-08-04T22:12:52.819Z,78.20
2022-08-04T22:14:59.491Z,78.70
2022-08-04T22:17:02.492Z,78.60
2022-08-04T22:19:05.273Z,78.60
2022-08-04T22:21:11.769Z,79.20
2022-08-04T22:23:16.818Z,79.00
2022-08-04T22:25:20.839Z,78.70
2022-08-04T22:27:41.625Z,79.40
2022-08-04T22:29:44.991Z,79.80
2022-08-04T22:31:56.369Z,80.20
2022-08-04T22:33:58.865Z,80.60
2022-08-04T22:36:01.602Z,80.80
2022-08-04T22:38:06.290Z,80.30
2022-08-04T22:40:09.927Z,80.70
2022-08-04T22:42:13.242Z,80.70
2022-08-04T22:44:15.999Z,80.70
2022-08-04T22:46:20.806Z,81.00
2022-08-04T22:48:23.563Z,82.20
2022-08-04T22:50:29.067Z,83.20
2022-08-04T22:52:32.160Z,82.80
2022-08-04T22:54:33.884Z,83.20
2022-08-04T22:56:38.448Z,83.10
2022-08-04T22:58:45.795Z,83.80
2022-08-04T23:00:54.011Z,84.40
2022-08-04T23:02:59.756Z,84.50
2022-08-04T23:05:01.444Z,85.10
2022-08-04T23:07:05.210Z,85.40
2022-08-04T23:09:15.887Z,85.50
2022-08-04T23:11:18.113Z,85.30
2022-08-04T23:13:20.024Z,86.00
2022-08-04T23:15:21.777Z,85.70
2022-08-04T23:17:24.375Z,86.10
2022-08-04T23:19:30.133Z,86.20
2022-08-04T23:21:40.830Z,85.80
2022-08-04T23:24:00.735Z,86.40
2022-08-04T23:26:11.094Z,86.60
2022-08-04T23:28:12.851Z,87.30
2022-08-04T23:30:14.984Z,87.00
2022-08-04T23:32:20.400Z,87.50
2022-08-04T23:34:22.322Z,87.60
2022-08-04T23:36:29.825Z,88.10
2022-08-04T23:38:32.916Z,87.90
2022-08-04T23:40:50.585Z,89.30
2022-08-04T23:42:52.463Z,89.00
2022-08-04T23:44:54.805Z,90.10
2022-08-04T23:47:05.426Z,90.60
2022-08-04T23:49:09.080Z,90.10
2022-08-04T23:51:14.260Z,90.90
2022-08-04T23:53:18.573Z,91.20
2022-08-04T23:55:24.488Z,91.00
2022-08-04T23:58:05.309Z,91.40
2022-08-04T23:59:55.343Z,91.30
